FYWH/WDH METAR and TAF weather

Enter ICAO airport designator
Station Type Date Time Source
FYWH METAR 2018/07/21 12:00 UTC NOAA

FYWH 211200Z 03010KT CAVOK 19/M00 Q1026 NOSIG


Station Type Date Time Source
FYWH Decoded METAR 2018/07/21 12:00 UTC NOAA

J. G. Strijdom, Namibia (FYWH) 22-29S 017-28E 1700M
Jul 21, 2018 - 08:00 AM EDT / 2018.07.21 1200 UTC
Wind: from the NNE (030 degrees) at 12 MPH (10 KT):0
Visibility: greater than 7 mile(s):0
Temperature: 66 F (19 C)
Dew Point: 32 F (0 C)
Relative Humidity: 27%
Pressure (altimeter): 30.30 in. Hg (1026 hPa)
ob: FYWH 211200Z 03010KT CAVOK 19/M00 Q1026 NOSIG
cycle: 12

Station Type Date Time Source
FYWH TAF 2018/07/21 12:18 UTC NOAA

TAF FYWH 211000Z 2112/2212 04011KT CAVOK
BECMG 2113/2115 28003KT
BECMG 2209/2211 17004KT


Example: see airport list